Time;durP1;ratioP1;P1;durP2;ratioP2;P2;SDS_P1;SDS_P2;PMS_P1;PMS_P2;Temp;Humidity;BMP_temperature;BMP_pressure;BME280_temperature;BME280_humidity;BME280_pressure;Samples;Min_cycle;Max_cycle;Signal;HPM_P1;HPM_P2
2021/05/06 00:09:01;;;;;;;2.67;0.93;;;6.60;95.50;;;;;;5081623;28;20448;-77
2021/05/06 00:31:01;;;;;;;3.60;0.77;;;6.50;96.30;;;;;;5081971;28;20067;-76
2021/05/06 00:33:21;;;;;;;2.10;0.90;;;6.50;96.10;;;;;;5082082;28;20028;-77
2021/05/06 00:35:48;;;;;;;4.97;1.35;;;6.50;96.40;;;;;;5085944;28;20027;-76
2021/05/06 00:38:16;;;;;;;1.98;0.98;;;6.50;96.30;;;;;;5083887;28;20048;-76
2021/05/06 00:40:55;;;;;;;2.35;0.93;;;6.50;96.20;;;;;;5080169;28;20919;-77
2021/05/06 00:43:51;;;;;;;3.00;1.48;;;6.50;96.40;;;;;;5078101;28;20055;-77
2021/05/06 00:46:29;;;;;;;1.65;0.90;;;6.50;96.20;;;;;;5075036;28;20474;-77
2021/05/06 00:54:46;;;;;;;8.15;0.90;;;6.40;96.20;;;;;;5080860;28;20096;-76
2021/05/06 00:57:22;;;;;;;3.10;0.85;;;6.40;96.90;;;;;;5085709;28;20028;-76
2021/05/06 01:00:15;;;;;;;0.60;0.57;;;6.40;96.80;;;;;;5083821;28;20035;-76
2021/05/06 01:05:35;;;;;;;3.38;2.30;;;6.40;97.00;;;;;;5078610;28;20027;-76
2021/05/06 01:08:07;;;;;;;1.27;0.80;;;6.40;97.20;;;;;;5083613;28;20481;-77
2021/05/06 01:13:04;;;;;;;1.45;0.55;;;6.30;97.50;;;;;;5082737;28;20478;-77
2021/05/06 01:15:30;;;;;;;9.85;0.95;;;6.30;97.20;;;;;;5083963;28;20039;-77
2021/05/06 01:17:56;;;;;;;6.15;1.30;;;6.30;97.20;;;;;;5078421;28;20027;-77
2021/05/06 01:20:21;;;;;;;7.10;1.15;;;6.30;97.30;;;;;;5074927;28;20258;-77
2021/05/06 01:22:47;;;;;;;5.03;1.83;;;6.30;97.40;;;;;;5078232;28;20032;-76
2021/05/06 01:25:14;;;;;;;1.30;0.90;;;6.30;97.60;;;;;;5080179;28;20035;-77
2021/05/06 01:27:58;;;;;;;1.25;0.65;;;6.30;97.20;;;;;;5075404;28;20266;-76
2021/05/06 01:33:25;;;;;;;1.95;0.80;;;6.30;97.10;;;;;;5082388;28;20023;-76
2021/05/06 01:36:15;;;;;;;7.20;1.35;;;6.20;96.80;;;;;;5084302;28;20032;-76
2021/05/06 01:58:02;;;;;;;2.78;0.93;;;6.00;97.20;;;;;;5072079;28;20030;-76
2021/05/06 02:00:39;;;;;;;8.20;0.77;;;6.00;97.20;;;;;;5081102;28;20397;-76
2021/05/06 02:03:05;;;;;;;1.63;1.00;;;5.90;96.80;;;;;;5080513;28;20111;-77
2021/05/06 02:05:30;;;;;;;5.78;1.05;;;6.00;97.30;;;;;;5084892;28;20526;-76
2021/05/06 02:07:56;;;;;;;11.82;1.40;;;5.90;96.70;;;;;;5076895;28;20024;-76
2021/05/06 02:10:25;;;;;;;1.40;1.05;;;6.00;96.90;;;;;;5080412;28;20028;-76
2021/05/06 02:12:51;;;;;;;2.38;0.40;;;5.90;96.60;;;;;;5082972;28;20027;-77
2021/05/06 02:15:40;;;;;;;2.38;0.85;;;5.90;96.80;;;;;;5080550;28;20034;-77
2021/05/06 02:18:02;;;;;;;1.65;0.82;;;5.90;96.70;;;;;;5075918;28;20055;-76
2021/05/06 02:20:28;;;;;;;2.92;1.55;;;5.90;96.70;;;;;;5078260;28;20474;-76
2021/05/06 02:22:54;;;;;;;7.10;1.20;;;5.90;96.90;;;;;;5077708;28;20096;-76
2021/05/06 02:25:20;;;;;;;2.00;0.85;;;5.90;97.00;;;;;;5085719;28;20020;-77
2021/05/06 02:27:46;;;;;;;2.13;0.57;;;5.90;96.80;;;;;;5082864;28;20024;-77
2021/05/06 02:30:12;;;;;;;4.05;1.08;;;5.90;96.70;;;;;;5079464;28;20028;-76
2021/05/06 02:32:38;;;;;;;6.93;0.90;;;5.90;96.80;;;;;;5083091;28;20051;-76
2021/05/06 02:35:04;;;;;;;2.95;0.65;;;5.90;96.90;;;;;;5080863;28;20047;-76
2021/05/06 02:37:29;;;;;;;1.80;1.20;;;5.90;97.10;;;;;;5085494;28;20081;-77
2021/05/06 02:39:55;;;;;;;2.15;0.57;;;5.90;97.10;;;;;;5080406;28;20028;-77
2021/05/06 02:42:21;;;;;;;4.63;0.95;;;5.80;97.30;;;;;;5081661;28;20027;-77
2021/05/06 02:44:46;;;;;;;3.38;0.77;;;5.80;97.50;;;;;;5082453;28;20028;-77
2021/05/06 02:47:12;;;;;;;2.38;1.10;;;5.80;97.60;;;;;;5081441;28;20020;-76
2021/05/06 02:49:43;;;;;;;6.60;0.85;;;5.80;98.00;;;;;;5080317;28;20055;-77
2021/05/06 02:52:18;;;;;;;2.17;0.70;;;5.80;98.20;;;;;;5077109;28;20465;-77
2021/05/06 02:54:51;;;;;;;6.38;0.70;;;5.70;98.60;;;;;;5076913;28;20024;-77
2021/05/06 02:57:26;;;;;;;1.00;0.75;;;5.70;99.00;;;;;;5080401;28;20024;-76
2021/05/06 03:02:51;;;;;;;3.50;0.82;;;5.70;99.20;;;;;;5078300;28;20085;-77
2021/05/06 03:05:23;;;;;;;0.65;0.47;;;5.70;99.60;;;;;;5081219;28;20054;-76
2021/05/06 03:07:57;;;;;;;4.78;1.02;;;5.70;99.60;;;;;;5082833;28;20507;-76
2021/05/06 03:24:03;;;;;;;1.48;0.93;;;5.70;99.80;;;;;;5075511;28;20494;-76
2021/05/06 03:26:31;;;;;;;0.63;0.50;;;5.70;99.80;;;;;;5082863;28;20390;-77
2021/05/06 03:29:04;;;;;;;1.60;0.77;;;5.70;99.90;;;;;;5083141;28;20398;-77
2021/05/06 03:42:25;;;;;;;2.58;1.25;;;5.70;99.90;;;;;;5078859;28;20110;-77
2021/05/06 03:45:10;;;;;;;4.15;1.05;;;5.70;99.90;;;;;;5085446;28;20032;-77
2021/05/06 03:51:03;;;;;;;2.45;1.08;;;5.70;99.90;;;;;;5086540;28;20071;-77
2021/05/06 04:16:13;;;;;;;4.50;1.50;;;5.80;99.90;;;;;;5080102;28;20117;-77
2021/05/06 04:18:27;;;;;;;0.82;0.77;;;5.80;99.90;;;;;;5084694;28;20647;-77
2021/05/06 04:26:33;;;;;;;1.63;0.80;;;5.80;99.20;;;;;;5081190;28;20063;-78
2021/05/06 04:29:43;;;;;;;2.45;0.70;;;5.90;98.90;;;;;;5079203;28;20086;-72
2021/05/06 04:36:59;;;;;;;3.50;1.27;;;5.90;98.00;;;;;;5070615;28;20130;-72
2021/05/06 04:39:39;;;;;;;4.85;0.73;;;6.00;98.30;;;;;;5085668;28;20093;-72
2021/05/06 04:53:29;;;;;;;0.50;0.50;;;6.10;96.90;;;;;;5084481;28;20127;-77
2021/05/06 05:06:25;;;;;;;2.35;1.15;;;6.30;95.30;;;;;;5084395;28;20103;-78
2021/05/06 05:09:03;;;;;;;1.13;0.80;;;6.30;95.00;;;;;;5086371;28;20173;-78
2021/05/06 05:14:02;;;;;;;8.25;1.60;;;6.30;94.60;;;;;;5082998;28;20573;-79
2021/05/06 05:19:40;;;;;;;0.85;0.80;;;6.40;94.10;;;;;;5080669;28;20117;-78
2021/05/06 05:24:58;;;;;;;7.45;0.82;;;6.50;93.90;;;;;;5077597;28;20481;-79
2021/05/06 05:27:24;;;;;;;2.50;0.90;;;6.50;93.80;;;;;;5085871;28;20094;-81
2021/05/06 05:29:53;;;;;;;1.67;0.80;;;6.60;93.60;;;;;;5087320;28;20032;-83
2021/05/06 05:32:19;;;;;;;2.22;1.00;;;6.70;93.30;;;;;;5075088;28;20434;-85
2021/05/06 05:34:52;;;;;;;5.20;0.90;;;6.70;93.30;;;;;;5080780;28;20190;-85
2021/05/06 05:37:20;;;;;;;5.32;1.27;;;6.70;92.90;;;;;;5081043;28;20809;-85
2021/05/06 05:55:47;;;;;;;2.17;0.95;;;7.00;91.70;;;;;;5074897;28;20031;-84
2021/05/06 05:58:13;;;;;;;2.72;1.10;;;7.10;91.30;;;;;;5073012;28;20016;-85
2021/05/06 06:00:39;;;;;;;1.13;0.75;;;7.20;91.50;;;;;;5075508;28;20024;-84
2021/05/06 06:03:05;;;;;;;5.57;0.98;;;7.30;90.90;;;;;;5073349;28;20020;-84
2021/05/06 06:05:30;;;;;;;9.65;1.48;;;7.30;90.30;;;;;;5076890;28;20031;-84
2021/05/06 06:07:56;;;;;;;1.90;1.02;;;7.40;90.20;;;;;;5074777;28;20159;-85
2021/05/06 06:10:21;;;;;;;8.25;1.00;;;7.50;89.10;;;;;;5070473;28;20031;-85
2021/05/06 06:12:47;;;;;;;9.45;1.98;;;7.70;89.40;;;;;;5073051;28;20368;-84
2021/05/06 06:15:22;;;;;;;3.85;0.93;;;7.90;88.30;;;;;;5072650;28;20057;-85
2021/05/06 06:17:49;;;;;;;2.38;1.10;;;8.00;87.50;;;;;;5070315;28;20394;-85
2021/05/06 06:20:15;;;;;;;1.58;0.85;;;8.20;86.20;;;;;;5068235;28;20029;-84
2021/05/06 06:22:40;;;;;;;6.75;1.50;;;8.10;83.80;;;;;;5072651;28;20535;-85
2021/05/06 06:25:06;;;;;;;5.55;0.88;;;8.10;84.70;;;;;;5075693;28;20032;-85
2021/05/06 06:27:32;;;;;;;3.00;0.90;;;8.20;85.50;;;;;;5077530;28;20028;-85
2021/05/06 06:29:58;;;;;;;1.52;0.82;;;8.20;84.80;;;;;;5073777;28;20023;-85
2021/05/06 06:32:24;;;;;;;4.43;0.95;;;8.20;85.90;;;;;;5075494;28;20024;-80
2021/05/06 06:34:49;;;;;;;1.15;0.77;;;8.30;86.00;;;;;;5076425;28;20031;-80
2021/05/06 06:37:16;;;;;;;2.05;1.00;;;8.30;84.70;;;;;;5074090;28;20024;-78
2021/05/06 06:39:42;;;;;;;1.27;0.93;;;8.20;85.00;;;;;;5078557;28;20028;-79
2021/05/06 06:42:09;;;;;;;5.20;1.33;;;8.20;85.20;;;;;;5074250;28;20090;-82
2021/05/06 06:44:36;;;;;;;4.68;0.82;;;8.20;85.50;;;;;;5075553;28;20119;-82
2021/05/06 06:47:06;;;;;;;5.40;1.02;;;8.20;84.70;;;;;;5073263;28;20471;-83
2021/05/06 06:49:34;;;;;;;1.60;0.80;;;8.20;84.20;;;;;;5074747;28;20055;-79
2021/05/06 06:52:01;;;;;;;5.28;0.77;;;8.30;82.70;;;;;;5070985;28;20498;-80
2021/05/06 06:54:27;;;;;;;0.80;0.80;;;8.30;82.90;;;;;;5072609;28;20085;-80
2021/05/06 06:56:54;;;;;;;5.82;1.10;;;8.50;84.10;;;;;;5079672;28;20032;-79
2021/05/06 06:59:19;;;;;;;3.47;0.73;;;8.60;85.50;;;;;;5079356;28;20058;-82
2021/05/06 07:01:45;;;;;;;6.57;1.27;;;8.80;81.90;;;;;;5084648;28;20024;-82
2021/05/06 07:04:11;;;;;;;6.07;1.13;;;8.80;80.40;;;;;;5083351;28;20024;-81
2021/05/06 07:06:37;;;;;;;1.27;1.00;;;8.90;80.70;;;;;;5084369;28;20111;-81
2021/05/06 07:09:05;;;;;;;3.05;1.02;;;9.00;80.40;;;;;;5082534;28;20031;-80
2021/05/06 07:11:30;;;;;;;1.15;1.02;;;8.90;80.80;;;;;;5082772;28;20028;-85
2021/05/06 07:13:56;;;;;;;6.25;0.90;;;9.00;79.20;;;;;;5083607;28;20561;-77
2021/05/06 07:16:21;;;;;;;3.50;1.08;;;9.00;79.70;;;;;;5078794;28;20423;-76
2021/05/06 07:18:47;;;;;;;1.00;0.65;;;9.00;78.30;;;;;;5078638;28;20020;-76
2021/05/06 07:21:12;;;;;;;6.45;1.73;;;9.00;78.40;;;;;;5078268;28;20514;-77
2021/05/06 07:23:38;;;;;;;9.70;0.70;;;9.00;78.90;;;;;;5083027;28;20696;-77
2021/05/06 07:26:04;;;;;;;4.55;1.10;;;9.20;78.50;;;;;;5082077;28;20081;-76
2021/05/06 07:28:38;;;;;;;2.10;0.90;;;9.20;78.00;;;;;;5084170;28;20029;-76
2021/05/06 07:31:05;;;;;;;1.98;0.80;;;9.30;78.00;;;;;;5071268;28;20027;-77
2021/05/06 07:33:33;;;;;;;4.60;1.05;;;9.20;77.10;;;;;;5077407;28;20028;-75
2021/05/06 07:36:00;;;;;;;4.78;1.30;;;9.20;76.60;;;;;;5082692;28;20078;-76
2021/05/06 07:38:32;;;;;;;1.55;1.00;;;9.20;76.40;;;;;;5080375;28;20475;-76
2021/05/06 07:40:59;;;;;;;;;;;9.30;76.80;;;;;;5080847;28;20452;-76
2021/05/06 07:43:25;;;;;;;4.55;1.00;;;9.40;75.80;;;;;;5083639;28;19908;-77
2021/05/06 07:45:51;;;;;;;2.13;1.15;;;9.50;75.10;;;;;;5081994;28;20031;-76
2021/05/06 07:48:16;;;;;;;3.80;0.95;;;9.50;75.00;;;;;;5084418;28;20031;-76
2021/05/06 07:50:42;;;;;;;1.23;0.80;;;9.60;74.30;;;;;;5083713;28;20048;-77
2021/05/06 07:53:12;;;;;;;2.50;0.90;;;9.70;73.80;;;;;;5081812;28;20422;-76
2021/05/06 07:55:39;;;;;;;1.30;0.73;;;9.60;74.50;;;;;;5083792;28;20016;-76
2021/05/06 07:58:06;;;;;;;6.50;1.00;;;9.50;74.40;;;;;;5082079;28;20034;-76
2021/05/06 08:00:34;;;;;;;3.25;0.75;;;9.40;75.90;;;;;;5084111;28;20043;-76
2021/05/06 08:03:01;;;;;;;3.08;0.82;;;9.50;74.40;;;;;;5082741;28;20040;-76
2021/05/06 08:05:26;;;;;;;7.72;1.25;;;9.60;73.90;;;;;;5083653;28;20108;-76
2021/05/06 08:07:52;;;;;;;1.88;1.25;;;9.50;73.00;;;;;;5081957;28;20493;-76
2021/05/06 08:10:18;;;;;;;7.22;1.40;;;9.40;73.80;;;;;;5079554;28;20032;-75
2021/05/06 08:12:44;;;;;;;1.90;0.80;;;9.40;73.40;;;;;;5082164;28;20028;-76
2021/05/06 08:15:11;;;;;;;7.97;1.42;;;9.50;72.90;;;;;;5082142;28;20128;-76
2021/05/06 08:17:38;;;;;;;1.58;0.95;;;9.60;72.70;;;;;;5082104;28;20030;-76
2021/05/06 08:20:10;;;;;;;1.83;1.02;;;9.50;70.80;;;;;;5080093;28;20110;-76
2021/05/06 08:22:37;;;;;;;2.40;1.48;;;9.60;70.80;;;;;;5085575;28;20039;-76
2021/05/06 08:25:03;;;;;;;1.85;0.75;;;9.60;70.40;;;;;;5085751;28;20028;-76
2021/05/06 08:27:31;;;;;;;2.05;0.88;;;9.50;68.40;;;;;;5087344;28;20115;-76
2021/05/06 08:29:57;;;;;;;1.50;0.70;;;9.50;68.80;;;;;;5085135;28;20066;-76
2021/05/06 08:32:22;;;;;;;4.68;1.25;;;9.60;67.80;;;;;;5087423;28;20475;-76
2021/05/06 08:34:49;;;;;;;5.50;1.30;;;9.60;69.10;;;;;;5087251;28;20054;-75
2021/05/06 08:37:15;;;;;;;2.25;1.05;;;9.60;69.30;;;;;;5085346;28;20112;-76
2021/05/06 08:39:40;;;;;;;10.75;1.17;;;9.50;69.60;;;;;;5087559;28;20091;-77
2021/05/06 08:42:06;;;;;;;1.10;1.00;;;9.60;68.50;;;;;;5085652;28;20038;-76
2021/05/06 08:44:34;;;;;;;3.42;1.13;;;9.70;68.70;;;;;;5087827;28;20028;-76
2021/05/06 08:47:07;;;;;;;7.28;1.58;;;9.80;68.80;;;;;;5087674;28;20036;-75
2021/05/06 08:49:35;;;;;;;5.22;1.10;;;9.90;67.30;;;;;;5086879;28;20040;-76
2021/05/06 08:52:03;;;;;;;2.95;1.90;;;10.00;67.40;;;;;;5086629;28;20035;-76
2021/05/06 08:54:28;;;;;;;1.58;1.23;;;10.10;67.50;;;;;;5081635;28;20046;-76
2021/05/06 08:56:54;;;;;;;9.07;1.40;;;10.30;67.40;;;;;;5083580;28;20024;-77
2021/05/06 08:59:19;;;;;;;4.13;1.50;;;10.70;67.10;;;;;;5078277;28;20108;-76
2021/05/06 09:01:47;;;;;;;5.05;1.52;;;10.90;65.30;;;;;;5071605;28;20386;-77
2021/05/06 09:04:12;;;;;;;3.45;1.95;;;11.00;64.80;;;;;;5081948;28;20056;-76
2021/05/06 09:06:55;;;;;;;2.63;1.95;;;11.20;64.90;;;;;;5081492;28;20051;-76
2021/05/06 09:09:21;;;;;;;7.05;1.30;;;11.20;63.40;;;;;;5081618;28;20032;-76
2021/05/06 09:11:51;;;;;;;3.10;1.15;;;11.10;64.40;;;;;;5084971;28;20028;-76
2021/05/06 09:14:17;;;;;;;5.17;1.17;;;11.30;64.60;;;;;;5087424;28;20103;-76
2021/05/06 09:16:44;;;;;;;9.00;1.50;;;11.40;64.50;;;;;;5086470;28;20123;-75
2021/05/06 09:19:17;;;;;;;4.53;2.08;;;11.50;65.40;;;;;;5085659;28;20467;-76
2021/05/06 09:21:45;;;;;;;5.40;1.50;;;11.60;63.50;;;;;;5085235;28;20108;-76
2021/05/06 09:24:21;;;;;;;4.82;1.60;;;11.40;62.90;;;;;;5084579;28;20028;-76
2021/05/06 09:26:47;;;;;;;2.42;1.27;;;11.50;63.90;;;;;;5086093;28;20024;-76
2021/05/06 09:29:29;;;;;;;5.70;2.03;;;11.50;62.90;;;;;;5084727;28;20043;-76
2021/05/06 09:32:06;;;;;;;;;;;11.20;63.00;;;;;;5086125;28;20827;-76
2021/05/06 09:34:36;;;;;;;4.95;1.45;;;11.00;63.10;;;;;;5084868;28;19908;-76
2021/05/06 09:37:02;;;;;;;3.88;2.28;;;10.70;64.60;;;;;;5084368;28;20899;-75
2021/05/06 09:39:28;;;;;;;5.40;2.50;;;10.60;67.00;;;;;;5080614;28;20016;-76
2021/05/06 09:42:08;;;;;;;2.30;1.98;;;10.50;67.20;;;;;;5082058;28;20047;-76
2021/05/06 09:44:51;;;;;;;3.83;2.08;;;10.50;67.80;;;;;;5076033;28;20036;-76
2021/05/06 09:47:16;;;;;;;5.60;2.33;;;10.50;68.70;;;;;;5080984;28;20069;-76
2021/05/06 09:49:42;;;;;;;3.53;2.20;;;10.60;71.90;;;;;;5079979;28;20043;-76
2021/05/06 09:52:07;;;;;;;2.85;1.52;;;10.50;73.50;;;;;;5080014;28;20059;-77
2021/05/06 09:54:34;;;;;;;7.30;1.70;;;10.50;74.10;;;;;;5084076;28;20378;-76
2021/05/06 09:57:07;;;;;;;4.28;1.88;;;10.50;73.10;;;;;;5083728;28;20470;-76
2021/05/06 09:59:37;;;;;;;3.70;2.10;;;10.50;73.00;;;;;;5081762;28;20471;-77
2021/05/06 10:02:10;;;;;;;3.67;2.45;;;10.60;73.20;;;;;;5083498;28;20116;-76
2021/05/06 10:04:37;;;;;;;4.10;2.55;;;10.50;73.90;;;;;;5084965;28;20121;-77
2021/05/06 10:07:07;;;;;;;4.82;2.20;;;10.40;75.40;;;;;;5083363;28;20070;-77
2021/05/06 10:09:33;;;;;;;5.28;2.75;;;10.30;75.60;;;;;;5072795;28;20103;-76
2021/05/06 10:12:00;;;;;;;7.05;2.10;;;10.30;76.60;;;;;;5084292;28;20169;-77
2021/05/06 10:14:26;;;;;;;4.03;2.75;;;10.00;78.20;;;;;;5084886;28;20050;-77
2021/05/06 10:16:51;;;;;;;3.38;2.38;;;9.90;84.00;;;;;;5084554;28;20474;-77
2021/05/06 10:19:17;;;;;;;3.72;2.28;;;9.90;85.80;;;;;;5082805;28;20382;-77
2021/05/06 10:21:46;;;;;;;4.38;2.17;;;10.00;89.00;;;;;;5084980;28;20107;-77
2021/05/06 10:24:16;;;;;;;7.90;2.80;;;10.10;90.90;;;;;;5079670;28;20108;-77
2021/05/06 10:26:45;;;;;;;4.20;1.92;;;10.50;90.50;;;;;;5079496;28;20035;-77
2021/05/06 10:29:10;;;;;;;5.15;3.08;;;10.80;86.20;;;;;;5079312;28;20054;-77
2021/05/06 10:31:40;;;;;;;6.05;2.15;;;10.80;87.60;;;;;;5078730;28;20538;-77
2021/05/06 10:34:06;;;;;;;3.88;2.30;;;10.60;82.90;;;;;;5078167;28;20039;-77
2021/05/06 10:36:34;;;;;;;10.75;2.30;;;10.50;88.00;;;;;;5081724;28;20024;-77
2021/05/06 10:39:00;;;;;;;5.05;2.50;;;10.50;86.40;;;;;;5079608;28;20453;-77
2021/05/06 10:41:34;;;;;;;4.13;2.63;;;10.80;86.30;;;;;;5084769;28;20122;-77
2021/05/06 10:44:11;;;;;;;5.82;2.83;;;10.90;81.50;;;;;;5082804;28;20039;-77
2021/05/06 10:46:58;;;;;;;4.55;2.65;;;11.00;80.60;;;;;;5084648;28;20016;-77
2021/05/06 10:49:39;;;;;;;6.97;3.03;;;10.70;81.10;;;;;;5084399;28;20028;-77
2021/05/06 10:52:10;;;;;;;7.32;2.55;;;10.70;81.60;;;;;;5081905;28;20052;-75
2021/05/06 10:54:39;;;;;;;5.57;2.60;;;10.90;81.00;;;;;;5084677;28;20028;-77
2021/05/06 10:57:10;;;;;;;6.35;2.47;;;10.90;77.90;;;;;;5082518;28;20481;-75
2021/05/06 10:59:44;;;;;;;7.55;2.90;;;10.90;77.50;;;;;;5078939;28;20092;-77
2021/05/06 11:02:11;;;;;;;5.78;2.70;;;11.00;76.00;;;;;;5075279;28;20020;-75
2021/05/06 11:04:41;;;;;;;5.03;2.88;;;11.20;76.00;;;;;;5084474;28;20039;-77
2021/05/06 11:07:18;;;;;;;6.20;2.75;;;11.80;75.80;;;;;;5082262;28;20507;-76
2021/05/06 11:09:46;;;;;;;8.93;2.95;;;12.20;74.60;;;;;;5079289;28;20035;-76
2021/05/06 11:12:22;;;;;;;4.75;2.88;;;12.30;72.80;;;;;;5079053;28;20107;-77
2021/05/06 11:15:00;;;;;;;10.93;2.78;;;12.50;73.90;;;;;;5079006;28;20081;-75
2021/05/06 11:17:32;;;;;;;7.72;2.15;;;12.90;73.10;;;;;;5080826;28;20024;-75
2021/05/06 11:20:27;;;;;;;3.60;2.63;;;13.30;73.50;;;;;;5079262;28;20024;-76
2021/05/06 11:22:57;;;;;;;5.55;3.03;;;13.90;71.80;;;;;;5077131;28;20107;-75
2021/05/06 11:25:46;;;;;;;5.57;2.78;;;14.20;66.00;;;;;;5081583;28;20190;-77
2021/05/06 11:28:11;;;;;;;3.22;2.45;;;14.40;66.20;;;;;;5077644;28;20099;-75
2021/05/06 11:30:43;;;;;;;2.70;2.15;;;14.80;66.70;;;;;;5084177;28;20104;-76
2021/05/06 11:33:27;;;;;;;2.25;1.77;;;15.20;63.60;;;;;;5082293;28;20028;-75
2021/05/06 11:36:13;;;;;;;5.32;2.15;;;16.00;60.40;;;;;;5072802;28;20571;-74
2021/05/06 11:38:43;;;;;;;5.40;2.45;;;16.80;58.30;;;;;;5084182;28;20025;-74
2021/05/06 11:41:19;;;;;;;4.33;2.80;;;16.70;56.50;;;;;;5082341;28;20046;-75
2021/05/06 11:43:45;;;;;;;3.60;2.42;;;16.20;58.40;;;;;;5084284;28;20062;-75
2021/05/06 11:46:18;;;;;;;3.78;2.58;;;15.30;57.40;;;;;;5085954;28;20515;-76
2021/05/06 11:48:49;;;;;;;4.90;2.42;;;14.50;59.60;;;;;;5087826;28;20024;-75
2021/05/06 11:51:29;;;;;;;3.00;2.40;;;13.90;63.30;;;;;;5085887;28;20048;-76
2021/05/06 11:54:30;;;;;;;6.30;2.63;;;13.20;65.90;;;;;;5084268;28;20031;-76
2021/05/06 11:57:01;;;;;;;4.33;2.90;;;12.80;67.00;;;;;;5083917;28;20060;-76
2021/05/06 11:59:29;;;;;;;8.15;2.65;;;12.60;69.90;;;;;;5082354;28;20024;-75
2021/05/06 12:01:58;;;;;;;6.55;2.38;;;12.50;71.10;;;;;;5082097;28;20031;-76
2021/05/06 12:04:31;;;;;;;5.13;2.05;;;12.40;72.90;;;;;;5082511;28;20127;-76
2021/05/06 12:06:58;;;;;;;5.68;2.92;;;12.30;73.10;;;;;;5083954;28;20103;-76
2021/05/06 12:09:26;;;;;;;5.93;3.15;;;12.20;71.70;;;;;;5083953;28;20024;-76
2021/05/06 12:11:52;;;;;;;6.93;2.40;;;12.30;72.30;;;;;;5085082;28;20031;-76
2021/05/06 12:14:38;;;;;;;6.00;2.97;;;12.40;74.20;;;;;;5087860;28;20028;-76
2021/05/06 12:17:08;;;;;;;5.57;2.92;;;13.70;75.10;;;;;;5085353;28;20040;-76
2021/05/06 12:19:47;;;;;;;4.32;2.97;;;14.40;64.10;;;;;;5088013;28;20116;-76
2021/05/06 12:22:14;;;;;;;7.13;3.10;;;14.20;64.80;;;;;;5085541;28;20032;-76
2021/05/06 12:24:49;;;;;;;3.53;2.63;;;14.10;66.30;;;;;;5087336;28;20038;-77
2021/05/06 12:27:16;;;;;;;3.63;2.65;;;14.80;65.00;;;;;;5085633;28;20486;-77
2021/05/06 12:29:42;;;;;;;4.35;2.78;;;16.00;61.90;;;;;;5087306;28;20036;-75
2021/05/06 12:32:16;;;;;;;6.78;3.03;;;15.70;60.60;;;;;;5085049;28;20043;-77
2021/05/06 12:34:42;;;;;;;5.15;2.83;;;15.90;59.70;;;;;;5087028;28;20032;-76
2021/05/06 12:37:08;;;;;;;3.53;2.47;;;17.20;57.20;;;;;;5085096;28;20218;-76
2021/05/06 12:39:33;;;;;;;3.38;2.58;;;18.90;52.30;;;;;;5082352;28;20024;-76
2021/05/06 12:42:01;;;;;;;2.30;2.00;;;19.20;51.20;;;;;;5083247;28;20028;-76
2021/05/06 12:44:43;;;;;;;5.18;2.08;;;19.70;46.50;;;;;;5083534;28;20032;-76
2021/05/06 12:47:12;;;;;;;2.00;1.80;;;18.80;47.20;;;;;;5081813;28;20123;-76
2021/05/06 12:49:38;;;;;;;5.28;2.00;;;18.70;47.20;;;;;;5081156;28;20676;-77
2021/05/06 12:52:03;;;;;;;2.53;1.45;;;19.90;47.80;;;;;;5081947;28;20032;-77
2021/05/06 12:54:35;;;;;;;3.72;2.00;;;20.50;45.00;;;;;;5084099;28;20024;-76
2021/05/06 12:57:14;;;;;;;7.53;1.83;;;19.80;43.00;;;;;;5084470;28;20028;-77
2021/05/06 12:59:40;;;;;;;2.20;1.50;;;18.20;45.20;;;;;;5086392;28;20016;-76
2021/05/06 13:02:09;;;;;;;6.28;1.88;;;17.90;47.10;;;;;;5084491;28;20443;-76
2021/05/06 13:04:52;;;;;;;2.28;1.65;;;17.30;48.40;;;;;;5086458;28;20040;-76
2021/05/06 13:07:19;;;;;;;3.53;1.70;;;16.10;50.70;;;;;;5085740;28;20431;-76
2021/05/06 13:09:47;;;;;;;2.53;1.55;;;16.40;53.30;;;;;;5086732;28;20024;-76
2021/05/06 13:12:17;;;;;;;1.48;1.38;;;18.00;47.80;;;;;;5084044;28;20074;-77
2021/05/06 13:14:44;;;;;;;2.10;1.50;;;18.00;45.60;;;;;;5086345;28;20024;-76
2021/05/06 13:17:23;;;;;;;2.88;1.40;;;17.60;44.40;;;;;;5084594;28;20114;-77
2021/05/06 13:19:49;;;;;;;3.55;1.25;;;18.10;44.20;;;;;;5086179;28;20020;-77
2021/05/06 13:22:14;;;;;;;3.30;1.58;;;19.10;42.50;;;;;;5084020;28;20073;-76
2021/05/06 13:24:41;;;;;;;5.55;1.60;;;20.10;41.80;;;;;;5079155;28;20599;-76
2021/05/06 13:27:14;;;;;;;2.25;1.40;;;20.70;41.50;;;;;;5078853;28;20059;-77
2021/05/06 13:30:04;;;;;;;1.30;1.13;;;21.50;39.40;;;;;;5082648;28;20024;-77
2021/05/06 13:32:34;;;;;;;3.22;1.40;;;20.90;39.40;;;;;;5084996;28;20093;-75
2021/05/06 13:35:00;;;;;;;2.20;1.50;;;19.80;41.90;;;;;;5082635;28;20085;-76
2021/05/06 13:37:41;;;;;;;1.85;1.45;;;18.90;44.20;;;;;;5082556;28;20020;-76
2021/05/06 13:40:07;;;;;;;3.20;1.80;;;18.20;46.50;;;;;;5081683;28;20024;-76
2021/05/06 13:42:33;;;;;;;2.95;1.77;;;17.50;46.30;;;;;;5083688;28;20131;-74
2021/05/06 13:44:59;;;;;;;1.73;1.35;;;16.80;48.00;;;;;;5085407;28;20437;-73
2021/05/06 13:47:25;;;;;;;4.10;1.70;;;16.30;50.30;;;;;;5081830;28;20028;-75
2021/05/06 13:49:51;;;;;;;1.73;1.45;;;16.40;49.60;;;;;;5084321;28;20105;-73
2021/05/06 13:52:16;;;;;;;1.73;1.40;;;17.30;48.30;;;;;;5077607;28;20130;-72
2021/05/06 13:54:42;;;;;;;3.20;1.50;;;18.00;47.30;;;;;;5078386;28;20035;-73
2021/05/06 13:57:08;;;;;;;2.13;1.60;;;18.00;45.90;;;;;;5081835;28;20498;-73
2021/05/06 13:59:33;;;;;;;2.05;1.67;;;17.60;46.60;;;;;;5085619;28;20537;-73
2021/05/06 14:01:59;;;;;;;1.48;1.27;;;17.50;47.30;;;;;;5083887;28;20036;-74
2021/05/06 14:04:24;;;;;;;1.27;1.17;;;18.20;45.20;;;;;;5083947;28;20364;-73
2021/05/06 14:06:50;;;;;;;1.73;1.55;;;19.40;43.90;;;;;;5076667;28;20161;-73
2021/05/06 14:09:18;;;;;;;2.50;1.33;;;18.90;41.30;;;;;;5079282;28;20032;-72
2021/05/06 14:11:44;;;;;;;1.67;1.27;;;18.60;42.30;;;;;;5079324;28;20028;-73
2021/05/06 14:14:11;;;;;;;3.05;1.30;;;18.00;44.60;;;;;;5076752;28;20035;-72
2021/05/06 14:16:38;;;;;;;1.80;1.50;;;17.20;46.10;;;;;;5079122;28;20130;-73
2021/05/06 14:19:06;;;;;;;2.28;1.40;;;16.50;47.10;;;;;;5076987;28;20040;-72
2021/05/06 14:21:32;;;;;;;4.05;1.70;;;17.10;47.80;;;;;;5082730;28;20035;-72
2021/05/06 14:23:58;;;;;;;1.55;1.45;;;18.00;45.20;;;;;;5082627;28;20024;-72
2021/05/06 14:26:24;;;;;;;2.13;1.50;;;18.40;43.60;;;;;;5081376;28;20802;-71
2021/05/06 14:28:49;;;;;;;1.50;1.30;;;18.10;43.80;;;;;;5076792;28;20028;-72
2021/05/06 14:31:15;;;;;;;2.28;1.80;;;18.40;43.70;;;;;;5078229;28;20380;-75
2021/05/06 14:33:40;;;;;;;1.60;1.30;;;18.10;43.50;;;;;;5076660;28;20028;-75
2021/05/06 14:36:07;;;;;;;1.85;1.50;;;17.90;43.80;;;;;;5076756;28;20036;-77
2021/05/06 14:38:34;;;;;;;2.03;1.50;;;18.70;44.20;;;;;;5078737;28;20028;-76
2021/05/06 14:41:00;;;;;;;2.13;1.15;;;19.80;41.60;;;;;;5080716;28;20030;-75
2021/05/06 14:43:26;;;;;;;1.10;1.00;;;20.60;39.60;;;;;;5071215;28;20023;-75
2021/05/06 14:45:51;;;;;;;9.55;1.90;;;21.10;39.60;;;;;;5077919;28;20047;-74
2021/05/06 14:48:17;;;;;;;2.22;1.33;;;21.60;38.20;;;;;;5075021;28;20434;-73
2021/05/06 14:50:43;;;;;;;1.52;1.20;;;22.30;37.40;;;;;;5077415;28;20032;-73
2021/05/06 14:53:08;;;;;;;1.67;1.20;;;22.70;35.10;;;;;;5077109;28;21085;-73
2021/05/06 14:55:34;;;;;;;2.08;1.40;;;22.90;33.70;;;;;;5084094;28;20095;-73
2021/05/06 14:58:00;;;;;;;0.85;0.85;;;22.70;32.70;;;;;;5079949;28;20073;-73
2021/05/06 15:00:25;;;;;;;4.70;1.33;;;22.00;33.00;;;;;;5075896;28;20478;-73
2021/05/06 15:02:51;;;;;;;1.15;0.98;;;21.70;33.90;;;;;;5077631;28;20453;-74
2021/05/06 15:05:21;;;;;;;1.83;1.17;;;22.20;33.80;;;;;;5070722;28;20028;-75
2021/05/06 15:07:47;;;;;;;2.45;1.25;;;22.40;33.30;;;;;;5076836;28;20077;-78
2021/05/06 15:10:13;;;;;;;1.80;1.38;;;21.00;34.80;;;;;;5081316;28;20390;-76
2021/05/06 15:12:43;;;;;;;1.55;1.13;;;19.50;37.80;;;;;;5081991;28;20031;-81
2021/05/06 15:15:09;;;;;;;1.38;1.10;;;18.50;39.90;;;;;;5078819;28;20764;-76
2021/05/06 15:17:34;;;;;;;1.15;0.90;;;18.10;40.30;;;;;;5081848;28;20020;-74
2021/05/06 15:20:00;;;;;;;1.80;1.20;;;17.80;41.50;;;;;;5082485;28;20058;-74
2021/05/06 15:22:25;;;;;;;1.48;1.20;;;17.60;41.50;;;;;;5087721;28;20024;-74
2021/05/06 15:24:52;;;;;;;1.20;1.00;;;17.30;41.90;;;;;;5083407;28;20020;-74
2021/05/06 15:27:18;;;;;;;1.10;1.00;;;18.00;41.10;;;;;;5079099;28;20088;-74
2021/05/06 15:29:47;;;;;;;1.25;0.95;;;19.20;39.80;;;;;;5087841;28;20031;-74
2021/05/06 15:32:13;;;;;;;2.03;1.00;;;20.50;36.50;;;;;;5085458;28;20514;-75
2021/05/06 15:34:39;;;;;;;0.93;0.90;;;21.60;34.50;;;;;;5081691;28;20023;-74
2021/05/06 15:37:07;;;;;;;3.85;1.20;;;22.10;34.30;;;;;;5080167;28;20028;-74
2021/05/06 15:39:37;;;;;;;1.70;1.00;;;21.10;33.80;;;;;;5088091;28;20517;-74
2021/05/06 15:42:03;;;;;;;1.23;0.90;;;19.80;35.80;;;;;;5083396;28;20050;-74
2021/05/06 15:44:29;;;;;;;0.82;0.77;;;18.60;38.00;;;;;;5087535;28;20482;-73
2021/05/06 15:46:59;;;;;;;1.42;1.05;;;17.50;39.80;;;;;;5084672;28;20080;-74
2021/05/06 15:49:30;;;;;;;1.20;1.00;;;16.70;41.30;;;;;;5077197;28;20031;-74
2021/05/06 15:51:55;;;;;;;0.98;0.90;;;16.30;43.20;;;;;;5077139;28;20024;-74
2021/05/06 15:54:21;;;;;;;1.60;1.00;;;16.30;43.20;;;;;;5085794;28;20840;-76